sensor_id;sensor_type;location;lat;lon;timestamp;pressure;altitude;pressure_sealevel;temperature;humidity
78123;BME280;67376;44.802;10.332;2024-02-16T00:00:57;101657.22;;;19.17;40.12
78123;BME280;67376;44.802;10.332;2024-02-16T00:03:23;101652.63;;;19.18;40.10
78123;BME280;67376;44.802;10.332;2024-02-16T00:05:48;101661.59;;;19.18;39.95
78123;BME280;67376;44.802;10.332;2024-02-16T00:08:17;101649.94;;;19.18;39.90
78123;BME280;67376;44.802;10.332;2024-02-16T00:10:43;101653.47;;;19.18;39.11
78123;BME280;67376;44.802;10.332;2024-02-16T00:13:08;101652.63;;;19.18;39.62
78123;BME280;67376;44.802;10.332;2024-02-16T00:15:33;101653.47;;;19.18;39.96
78123;BME280;67376;44.802;10.332;2024-02-16T00:17:59;101647.44;;;19.16;39.21
78123;BME280;67376;44.802;10.332;2024-02-16T00:20:25;101641.81;;;19.18;39.10
78123;BME280;67376;44.802;10.332;2024-02-16T00:22:50;101645.34;;;19.18;39.93
78123;BME280;67376;44.802;10.332;2024-02-16T00:25:16;101640.97;;;19.17;40.01
78123;BME280;67376;44.802;10.332;2024-02-16T00:27:43;101646.38;;;19.17;39.03
78123;BME280;67376;44.802;10.332;2024-02-16T00:30:09;101646.59;;;19.16;39.95
78123;BME280;67376;44.802;10.332;2024-02-16T00:32:35;101637.63;;;19.15;40.06
78123;BME280;67376;44.802;10.332;2024-02-16T00:35:02;101633.25;;;19.14;39.51
78123;BME280;67376;44.802;10.332;2024-02-16T00:37:27;101638.47;;;19.16;38.99
78123;BME280;67376;44.802;10.332;2024-02-16T00:39:53;101641.19;;;19.16;39.97
78123;BME280;67376;44.802;10.332;2024-02-16T00:42:20;101643.88;;;19.16;39.41
78123;BME280;67376;44.802;10.332;2024-02-16T00:44:46;101640.34;;;19.15;39.28
78123;BME280;67376;44.802;10.332;2024-02-16T00:47:12;101637.63;;;19.15;39.43
78123;BME280;67376;44.802;10.332;2024-02-16T00:49:37;101633.06;;;19.16;39.88
78123;BME280;67376;44.802;10.332;2024-02-16T00:52:03;101635.97;;;19.14;39.08
78123;BME280;67376;44.802;10.332;2024-02-16T00:54:29;101633.06;;;19.16;39.65
78123;BME280;67376;44.802;10.332;2024-02-16T00:56:55;101632.22;;;19.15;39.81
78123;BME280;67376;44.802;10.332;2024-02-16T00:59:20;101635.75;;;19.16;39.81
78123;BME280;67376;44.802;10.332;2024-02-16T01:01:46;101628.69;;;19.14;39.34
78123;BME280;67376;44.802;10.332;2024-02-16T01:04:12;101635.97;;;19.14;39.49
78123;BME280;67376;44.802;10.332;2024-02-16T01:06:37;101637.00;;;19.13;39.40
78123;BME280;67376;44.802;10.332;2024-02-16T01:09:02;101634.31;;;19.13;39.79
78123;BME280;67376;44.802;10.332;2024-02-16T01:11:28;101635.97;;;19.14;39.52
78123;BME280;67376;44.802;10.332;2024-02-16T01:13:54;101631.38;;;19.14;40.00
78123;BME280;67376;44.802;10.332;2024-02-16T01:16:19;101634.09;;;19.14;39.08
78123;BME280;67376;44.802;10.332;2024-02-16T01:18:44;101639.50;;;19.14;39.27
78123;BME280;67376;44.802;10.332;2024-02-16T01:21:10;101635.13;;;19.13;39.23
78123;BME280;67376;44.802;10.332;2024-02-16T01:23:36;101631.59;;;19.13;40.05
78123;BME280;67376;44.802;10.332;2024-02-16T01:26:01;101629.72;;;19.13;39.44
78123;BME280;67376;44.802;10.332;2024-02-16T01:28:26;101627.84;;;19.14;40.01
78123;BME280;67376;44.802;10.332;2024-02-16T01:30:52;101630.56;;;19.14;39.19
78123;BME280;67376;44.802;10.332;2024-02-16T01:33:19;101633.25;;;19.14;39.41
78123;BME280;67376;44.802;10.332;2024-02-16T01:35:44;101624.31;;;19.13;39.21
78123;BME280;67376;44.802;10.332;2024-02-16T01:38:11;101618.88;;;19.13;39.04
78123;BME280;67376;44.802;10.332;2024-02-16T01:40:36;101624.31;;;19.13;39.40
78123;BME280;67376;44.802;10.332;2024-02-16T01:43:02;101611.81;;;19.12;39.03
78123;BME280;67376;44.802;10.332;2024-02-16T01:45:27;101617.22;;;19.12;39.83
78123;BME280;67376;44.802;10.332;2024-02-16T01:47:53;101614.31;;;19.14;39.88
78123;BME280;67376;44.802;10.332;2024-02-16T01:50:20;101608.91;;;19.14;39.65
78123;BME280;67376;44.802;10.332;2024-02-16T01:52:48;101608.06;;;19.13;39.12
78123;BME280;67376;44.802;10.332;2024-02-16T01:55:15;101604.53;;;19.13;39.51
78123;BME280;67376;44.802;10.332;2024-02-16T01:57:43;101602.03;;;19.11;39.96
78123;BME280;67376;44.802;10.332;2024-02-16T02:00:09;101600.97;;;19.12;39.62
78123;BME280;67376;44.802;10.332;2024-02-16T02:02:35;101605.34;;;19.13;39.11
78123;BME280;67376;44.802;10.332;2024-02-16T02:05:01;101602.03;;;19.11;39.49
78123;BME280;67376;44.802;10.332;2024-02-16T02:07:27;101593.06;;;19.11;39.95
78123;BME280;67376;44.802;10.332;2024-02-16T02:09:52;101596.59;;;19.11;39.76
78123;BME280;67376;44.802;10.332;2024-02-16T02:12:18;101594.75;;;19.12;39.07
78123;BME280;67376;44.802;10.332;2024-02-16T02:14:43;101588.50;;;19.11;39.21
78123;BME280;67376;44.802;10.332;2024-02-16T02:17:09;101590.38;;;19.11;40.00
78123;BME280;67376;44.802;10.332;2024-02-16T02:19:34;101589.31;;;19.12;39.09
78123;BME280;67376;44.802;10.332;2024-02-16T02:22:00;101584.13;;;19.10;39.80
78123;BME280;67376;44.802;10.332;2024-02-16T02:24:26;101587.66;;;19.11;39.38
78123;BME280;67376;44.802;10.332;2024-02-16T02:26:51;101578.69;;;19.10;39.65
78123;BME280;67376;44.802;10.332;2024-02-16T02:29:17;101577.03;;;19.09;39.95
78123;BME280;67376;44.802;10.332;2024-02-16T02:31:42;101580.56;;;19.10;39.20
78123;BME280;67376;44.802;10.332;2024-02-16T02:34:07;101580.56;;;19.10;39.35
78123;BME280;67376;44.802;10.332;2024-02-16T02:36:33;101575.38;;;19.08;39.09
78123;BME280;67376;44.802;10.332;2024-02-16T02:38:58;101576.19;;;19.09;38.99
78123;BME280;67376;44.802;10.332;2024-02-16T02:41:24;101580.56;;;19.10;39.74
78123;BME280;67376;44.802;10.332;2024-02-16T02:43:50;101571.63;;;19.09;39.70
78123;BME280;67376;44.802;10.332;2024-02-16T02:46:16;101570.78;;;19.09;39.86
78123;BME280;67376;44.802;10.332;2024-02-16T02:48:45;101571.63;;;19.09;39.93
78123;BME280;67376;44.802;10.332;2024-02-16T02:51:11;101568.09;;;19.09;39.53
78123;BME280;67376;44.802;10.332;2024-02-16T02:53:37;101567.25;;;19.08;39.83
78123;BME280;67376;44.802;10.332;2024-02-16T02:56:03;101571.81;;;19.08;39.46
78123;BME280;67376;44.802;10.332;2024-02-16T02:58:28;101563.72;;;19.08;39.84
78123;BME280;67376;44.802;10.332;2024-02-16T03:00:54;101569.13;;;19.08;39.58
78123;BME280;67376;44.802;10.332;2024-02-16T03:03:20;101556.63;;;19.07;39.55
78123;BME280;67376;44.802;10.332;2024-02-16T03:05:46;101557.69;;;19.06;39.52
78123;BME280;67376;44.802;10.332;2024-02-16T03:08:12;101554.75;;;19.07;39.75
78123;BME280;67376;44.802;10.332;2024-02-16T03:10:37;101555.00;;;19.06;39.69
78123;BME280;67376;44.802;10.332;2024-02-16T03:13:04;101557.47;;;19.07;39.75
78123;BME280;67376;44.802;10.332;2024-02-16T03:15:29;101551.47;;;19.05;39.75
78123;BME280;67376;44.802;10.332;2024-02-16T03:17:55;101555.78;;;19.06;39.62
78123;BME280;67376;44.802;10.332;2024-02-16T03:20:20;101551.22;;;19.07;39.12
78123;BME280;67376;44.802;10.332;2024-02-16T03:22:46;101548.75;;;19.05;39.13
78123;BME280;67376;44.802;10.332;2024-02-16T03:25:12;101548.75;;;19.05;39.07
78123;BME280;67376;44.802;10.332;2024-02-16T03:27:37;101549.59;;;19.06;39.13
78123;BME280;67376;44.802;10.332;2024-02-16T03:30:03;101557.69;;;19.06;38.96
78123;BME280;67376;44.802;10.332;2024-02-16T03:32:30;101551.47;;;19.05;39.23
78123;BME280;67376;44.802;10.332;2024-02-16T03:35:00;101561.44;;;19.05;39.77
78123;BME280;67376;44.802;10.332;2024-02-16T03:37:25;101553.31;;;19.05;39.00
78123;BME280;67376;44.802;10.332;2024-02-16T03:39:51;101560.41;;;19.06;38.94
78123;BME280;67376;44.802;10.332;2024-02-16T03:42:18;101560.63;;;19.04;39.31
78123;BME280;67376;44.802;10.332;2024-02-16T03:44:44;101558.75;;;19.05;38.91
78123;BME280;67376;44.802;10.332;2024-02-16T03:47:10;101567.91;;;19.04;39.38
78123;BME280;67376;44.802;10.332;2024-02-16T03:49:35;101571.66;;;19.03;39.04
78123;BME280;67376;44.802;10.332;2024-02-16T03:52:01;101570.81;;;19.02;39.73
78123;BME280;67376;44.802;10.332;2024-02-16T03:54:26;101580.81;;;19.02;39.53
78123;BME280;67376;44.802;10.332;2024-02-16T03:56:53;101575.38;;;19.02;39.25
78123;BME280;67376;44.802;10.332;2024-02-16T03:59:19;101578.09;;;19.02;38.93
78123;BME280;67376;44.802;10.332;2024-02-16T04:01:44;101579.75;;;19.03;39.00
78123;BME280;67376;44.802;10.332;2024-02-16T04:04:10;101570.81;;;19.02;40.02
78123;BME280;67376;44.802;10.332;2024-02-16T04:06:35;101575.38;;;19.02;39.17
78123;BME280;67376;44.802;10.332;2024-02-16T04:09:01;101580.81;;;19.02;39.80
78123;BME280;67376;44.802;10.332;2024-02-16T04:11:26;101569.16;;;19.01;39.04
78123;BME280;67376;44.802;10.332;2024-02-16T04:13:54;101571.84;;;19.01;38.82
78123;BME280;67376;44.802;10.332;2024-02-16T04:16:20;101575.38;;;19.02;39.68
78123;BME280;67376;44.802;10.332;2024-02-16T04:18:47;101574.75;;;19.00;39.53
78123;BME280;67376;44.802;10.332;2024-02-16T04:21:12;101573.94;;;18.99;39.64
78123;BME280;67376;44.802;10.332;2024-02-16T04:23:38;101578.31;;;19.00;39.63
78123;BME280;67376;44.802;10.332;2024-02-16T04:26:03;101581.00;;;19.00;39.43
78123;BME280;67376;44.802;10.332;2024-02-16T04:28:32;101577.47;;;19.00;39.51
78123;BME280;67376;44.802;10.332;2024-02-16T04:30:57;101582.03;;;18.99;39.45
78123;BME280;67376;44.802;10.332;2024-02-16T04:33:22;101574.13;;;18.98;39.91
78123;BME280;67376;44.802;10.332;2024-02-16T04:35:48;101574.97;;;18.98;39.41
78123;BME280;67376;44.802;10.332;2024-02-16T04:38:15;101574.13;;;18.98;39.39
78123;BME280;67376;44.802;10.332;2024-02-16T04:40:41;101580.38;;;18.98;39.82
78123;BME280;67376;44.802;10.332;2024-02-16T04:43:07;101571.84;;;18.95;39.87
78123;BME280;67376;44.802;10.332;2024-02-16T04:45:32;101577.69;;;18.98;39.68
78123;BME280;67376;44.802;10.332;2024-02-16T04:48:01;101581.41;;;18.97;38.81
78123;BME280;67376;44.802;10.332;2024-02-16T04:50:27;101584.97;;;18.98;39.71
78123;BME280;67376;44.802;10.332;2024-02-16T04:52:52;101585.16;;;18.96;39.11
78123;BME280;67376;44.802;10.332;2024-02-16T04:55:17;101577.03;;;18.96;39.83
78123;BME280;67376;44.802;10.332;2024-02-16T04:57:43;101581.81;;;18.94;39.42
78123;BME280;67376;44.802;10.332;2024-02-16T05:00:08;101572.69;;;18.95;39.46
78123;BME280;67376;44.802;10.332;2024-02-16T05:02:34;101572.69;;;18.95;39.51
78123;BME280;67376;44.802;10.332;2024-02-16T05:05:00;101569.13;;;18.95;39.11
78123;BME280;67376;44.802;10.332;2024-02-16T05:07:25;101569.13;;;18.95;39.18
78123;BME280;67376;44.802;10.332;2024-02-16T05:09:51;101573.72;;;18.94;39.92
78123;BME280;67376;44.802;10.332;2024-02-16T05:12:21;101568.31;;;18.94;39.94
78123;BME280;67376;44.802;10.332;2024-02-16T05:14:50;101573.72;;;18.94;38.98
78123;BME280;67376;44.802;10.332;2024-02-16T05:17:16;101566.63;;;18.93;39.68
78123;BME280;67376;44.802;10.332;2024-02-16T05:19:41;101567.47;;;18.94;39.50
78123;BME280;67376;44.802;10.332;2024-02-16T05:22:07;101563.09;;;18.93;39.85
78123;BME280;67376;44.802;10.332;2024-02-16T05:24:32;101564.97;;;18.92;38.97
78123;BME280;67376;44.802;10.332;2024-02-16T05:26:58;101560.59;;;18.91;39.60
78123;BME280;67376;44.802;10.332;2024-02-16T05:29:23;101564.13;;;18.92;39.21
78123;BME280;67376;44.802;10.332;2024-02-16T05:31:52;101564.97;;;18.92;39.98
78123;BME280;67376;44.802;10.332;2024-02-16T05:34:17;101556.00;;;18.92;39.33
78123;BME280;67376;44.802;10.332;2024-02-16T05:36:43;101559.56;;;18.92;39.24
78123;BME280;67376;44.802;10.332;2024-02-16T05:39:08;101561.44;;;18.92;39.49
78123;BME280;67376;44.802;10.332;2024-02-16T05:41:54;101562.47;;;18.91;39.29
78123;BME280;67376;44.802;10.332;2024-02-16T05:44:20;101559.56;;;18.92;40.03
78123;BME280;67376;44.802;10.332;2024-02-16T05:46:46;101558.94;;;18.90;39.42
78123;BME280;67376;44.802;10.332;2024-02-16T05:49:12;101556.22;;;18.90;39.76
78123;BME280;67376;44.802;10.332;2024-02-16T05:51:37;101561.63;;;18.90;39.85
78123;BME280;67376;44.802;10.332;2024-02-16T05:54:06;101563.50;;;18.90;39.18
78123;BME280;67376;44.802;10.332;2024-02-16T05:56:33;101555.38;;;18.90;39.78
78123;BME280;67376;44.802;10.332;2024-02-16T05:58:59;101558.94;;;18.90;39.65
78123;BME280;67376;44.802;10.332;2024-02-16T06:01:25;101568.09;;;18.89;39.78
78123;BME280;67376;44.802;10.332;2024-02-16T06:03:50;101564.53;;;18.89;39.44
78123;BME280;67376;44.802;10.332;2024-02-16T06:06:15;101563.50;;;18.90;39.98
78123;BME280;67376;44.802;10.332;2024-02-16T06:08:41;101564.53;;;18.89;39.29
78123;BME280;67376;44.802;10.332;2024-02-16T06:11:09;101562.88;;;18.88;40.09
78123;BME280;67376;44.802;10.332;2024-02-16T06:13:34;101566.41;;;18.88;39.03
78123;BME280;67376;44.802;10.332;2024-02-16T06:16:00;101573.50;;;18.89;39.17
78123;BME280;67376;44.802;10.332;2024-02-16T06:18:25;101578.06;;;18.89;39.21
78123;BME280;67376;44.802;10.332;2024-02-16T06:20:54;101581.63;;;18.89;39.52
78123;BME280;67376;44.802;10.332;2024-02-16T06:23:20;101581.81;;;18.88;39.47
78123;BME280;67376;44.802;10.332;2024-02-16T06:25:45;101588.06;;;18.88;39.46
78123;BME280;67376;44.802;10.332;2024-02-16T06:28:10;101587.84;;;18.90;39.44
78123;BME280;67376;44.802;10.332;2024-02-16T06:30:36;101593.47;;;18.88;39.15
78123;BME280;67376;44.802;10.332;2024-02-16T06:33:01;101594.31;;;18.89;39.74
78123;BME280;67376;44.802;10.332;2024-02-16T06:35:27;101588.06;;;18.88;39.33
78123;BME280;67376;44.802;10.332;2024-02-16T06:37:52;101587.22;;;18.88;39.25
78123;BME280;67376;44.802;10.332;2024-02-16T06:40:18;101600.75;;;18.88;39.46
78123;BME280;67376;44.802;10.332;2024-02-16T06:42:44;101596.19;;;18.88;40.00
78123;BME280;67376;44.802;10.332;2024-02-16T06:45:09;101600.75;;;18.88;39.14
78123;BME280;67376;44.802;10.332;2024-02-16T06:47:35;101598.06;;;18.88;39.27
78123;BME280;67376;44.802;10.332;2024-02-16T06:50:00;101607.00;;;18.88;39.33
78123;BME280;67376;44.802;10.332;2024-02-16T06:52:25;101599.91;;;18.87;39.28
78123;BME280;67376;44.802;10.332;2024-02-16T06:54:51;101602.44;;;18.89;39.62
78123;BME280;67376;44.802;10.332;2024-02-16T06:57:17;101610.75;;;18.87;39.58
78123;BME280;67376;44.802;10.332;2024-02-16T06:59:42;101618.66;;;18.89;39.76
78123;BME280;67376;44.802;10.332;2024-02-16T07:02:07;101615.13;;;18.88;39.25
78123;BME280;67376;44.802;10.332;2024-02-16T07:04:34;101624.06;;;18.89;39.08
78123;BME280;67376;44.802;10.332;2024-02-16T07:06:59;101617.00;;;18.88;39.57
78123;BME280;67376;44.802;10.332;2024-02-16T07:09:25;101616.16;;;18.87;39.20
78123;BME280;67376;44.802;10.332;2024-02-16T07:11:50;101613.44;;;18.87;39.77
78123;BME280;67376;44.802;10.332;2024-02-16T07:14:17;101617.00;;;18.88;39.50
78123;BME280;67376;44.802;10.332;2024-02-16T07:16:42;101615.94;;;18.89;39.84
78123;BME280;67376;44.802;10.332;2024-02-16T07:19:08;101624.06;;;18.89;39.04
78123;BME280;67376;44.802;10.332;2024-02-16T07:21:33;101626.78;;;18.89;39.86
78123;BME280;67376;44.802;10.332;2024-02-16T07:23:59;101624.28;;;18.87;39.97
78123;BME280;67376;44.802;10.332;2024-02-16T07:26:24;101634.91;;;18.89;39.21
78123;BME280;67376;44.802;10.332;2024-02-16T07:28:50;101634.06;;;18.88;39.50
78123;BME280;67376;44.802;10.332;2024-02-16T07:31:15;101627.81;;;18.88;38.82
78123;BME280;67376;44.802;10.332;2024-02-16T07:33:41;101634.91;;;18.89;39.25
78123;BME280;67376;44.802;10.332;2024-02-16T07:36:07;101635.72;;;18.89;39.82
78123;BME280;67376;44.802;10.332;2024-02-16T07:38:32;101645.72;;;18.89;39.55
78123;BME280;67376;44.802;10.332;2024-02-16T07:40:58;101643.00;;;18.89;39.12
78123;BME280;67376;44.802;10.332;2024-02-16T07:43:26;101651.97;;;18.89;39.01
78123;BME280;67376;44.802;10.332;2024-02-16T07:45:51;101653.84;;;18.89;39.19
78123;BME280;67376;44.802;10.332;2024-02-16T07:48:22;101656.34;;;18.90;39.24
78123;BME280;67376;44.802;10.332;2024-02-16T07:50:48;101656.53;;;18.89;39.92
78123;BME280;67376;44.802;10.332;2024-02-16T07:53:15;101653.84;;;18.89;39.88
78123;BME280;67376;44.802;10.332;2024-02-16T07:55:41;101659.25;;;18.89;39.51
78123;BME280;67376;44.802;10.332;2024-02-16T07:58:06;101657.38;;;18.89;40.06
78123;BME280;67376;44.802;10.332;2024-02-16T08:00:32;101660.09;;;18.89;39.15
78123;BME280;67376;44.802;10.332;2024-02-16T08:02:57;101654.66;;;18.89;39.04
78123;BME280;67376;44.802;10.332;2024-02-16T08:05:23;101669.03;;;18.90;39.87
78123;BME280;67376;44.802;10.332;2024-02-16T08:07:49;101662.78;;;18.89;39.27
78123;BME280;67376;44.802;10.332;2024-02-16T08:10:18;101661.53;;;18.92;39.09
78123;BME280;67376;44.802;10.332;2024-02-16T08:12:43;101664.47;;;18.90;39.36
78123;BME280;67376;44.802;10.332;2024-02-16T08:15:09;101663.41;;;18.91;39.11
78123;BME280;67376;44.802;10.332;2024-02-16T08:17:36;101669.88;;;18.90;39.25
78123;BME280;67376;44.802;10.332;2024-02-16T08:20:02;101671.53;;;18.91;39.05
78123;BME280;67376;44.802;10.332;2024-02-16T08:22:28;101664.25;;;18.92;39.67
78123;BME280;67376;44.802;10.332;2024-02-16T08:24:54;101659.69;;;18.92;39.35
78123;BME280;67376;44.802;10.332;2024-02-16T08:27:20;101661.53;;;18.92;39.92
78123;BME280;67376;44.802;10.332;2024-02-16T08:29:45;101667.78;;;18.92;39.69
78123;BME280;67376;44.802;10.332;2024-02-16T08:32:11;101659.69;;;18.92;38.88
78123;BME280;67376;44.802;10.332;2024-02-16T08:34:37;101664.25;;;18.92;39.25
78123;BME280;67376;44.802;10.332;2024-02-16T08:37:03;101664.03;;;18.93;38.82
78123;BME280;67376;44.802;10.332;2024-02-16T08:39:29;101666.75;;;18.93;39.73
78123;BME280;67376;44.802;10.332;2024-02-16T08:41:56;101670.50;;;18.92;38.80
78123;BME280;67376;44.802;10.332;2024-02-16T08:44:21;101674.03;;;18.93;39.73
78123;BME280;67376;44.802;10.332;2024-02-16T08:46:46;101667.78;;;18.92;39.58
78123;BME280;67376;44.802;10.332;2024-02-16T08:49:14;101665.09;;;18.92;39.49
78123;BME280;67376;44.802;10.332;2024-02-16T08:51:39;101662.38;;;18.92;39.02
78123;BME280;67376;44.802;10.332;2024-02-16T08:54:04;101667.59;;;18.94;39.61
78123;BME280;67376;44.802;10.332;2024-02-16T08:56:30;101668.63;;;18.93;39.38
78123;BME280;67376;44.802;10.332;2024-02-16T08:58:56;101674.88;;;18.93;39.97
78123;BME280;67376;44.802;10.332;2024-02-16T09:01:35;101683.81;;;18.94;38.92
78123;BME280;67376;44.802;10.332;2024-02-16T09:04:00;101679.25;;;18.94;38.96
78123;BME280;67376;44.802;10.332;2024-02-16T09:06:26;101676.53;;;18.94;39.44
78123;BME280;67376;44.802;10.332;2024-02-16T09:08:52;101676.75;;;18.93;39.28
78123;BME280;67376;44.802;10.332;2024-02-16T09:11:17;101675.72;;;18.94;39.44
78123;BME280;67376;44.802;10.332;2024-02-16T09:13:43;101676.53;;;18.94;39.31
78123;BME280;67376;44.802;10.332;2024-02-16T09:16:08;101675.72;;;18.94;39.27
78123;BME280;67376;44.802;10.332;2024-02-16T09:18:34;101675.72;;;18.94;39.86
78123;BME280;67376;44.802;10.332;2024-02-16T09:21:00;101676.53;;;18.94;39.68
78123;BME280;67376;44.802;10.332;2024-02-16T09:23:26;101677.56;;;18.93;39.22
78123;BME280;67376;44.802;10.332;2024-02-16T09:25:51;101666.97;;;18.92;39.59
78123;BME280;67376;44.802;10.332;2024-02-16T09:28:17;101674.03;;;18.93;39.10
78123;BME280;67376;44.802;10.332;2024-02-16T09:30:46;101673.00;;;18.94;39.99
78123;BME280;67376;44.802;10.332;2024-02-16T09:33:11;101676.53;;;18.94;39.97
78123;BME280;67376;44.802;10.332;2024-02-16T09:35:38;101675.72;;;18.94;40.03
78123;BME280;67376;44.802;10.332;2024-02-16T09:38:03;101680.09;;;18.95;39.19
78123;BME280;67376;44.802;10.332;2024-02-16T09:40:29;101681.97;;;18.94;40.01
78123;BME280;67376;44.802;10.332;2024-02-16T09:42:54;101683.63;;;18.95;39.78
78123;BME280;67376;44.802;10.332;2024-02-16T09:45:20;101684.47;;;18.96;39.97
78123;BME280;67376;44.802;10.332;2024-02-16T09:47:46;101683.63;;;18.95;39.88
78123;BME280;67376;44.802;10.332;2024-02-16T09:50:14;101678.41;;;18.94;39.64
78123;BME280;67376;44.802;10.332;2024-02-16T09:52:41;101680.09;;;18.95;39.88
78123;BME280;67376;44.802;10.332;2024-02-16T09:55:10;101674.88;;;18.93;39.33
78123;BME280;67376;44.802;10.332;2024-02-16T09:57:36;101676.53;;;18.94;39.83
78123;BME280;67376;44.802;10.332;2024-02-16T10:00:02;101679.25;;;18.94;39.80
78123;BME280;67376;44.802;10.332;2024-02-16T10:02:42;101680.91;;;18.95;40.17
78123;BME280;67376;44.802;10.332;2024-02-16T10:05:15;101679.25;;;18.94;39.67
78123;BME280;67376;44.802;10.332;2024-02-16T10:07:41;101680.91;;;18.95;40.49
78123;BME280;67376;44.802;10.332;2024-02-16T10:10:19;101677.56;;;18.93;39.46
78123;BME280;67376;44.802;10.332;2024-02-16T10:12:46;101680.91;;;18.95;40.50
78123;BME280;67376;44.802;10.332;2024-02-16T10:15:11;101672.81;;;18.95;39.62
78123;BME280;67376;44.802;10.332;2024-02-16T10:17:37;101679.03;;;18.96;39.96
78123;BME280;67376;44.802;10.332;2024-02-16T10:20:02;101684.47;;;18.96;40.43
78123;BME280;67376;44.802;10.332;2024-02-16T10:22:31;101672.59;;;18.97;40.27
78123;BME280;67376;44.802;10.332;2024-02-16T10:25:07;101670.72;;;18.97;40.59
78123;BME280;67376;44.802;10.332;2024-02-16T10:27:36;101666.97;;;18.98;40.15
78123;BME280;67376;44.802;10.332;2024-02-16T10:30:02;101676.97;;;18.98;40.00
78123;BME280;67376;44.802;10.332;2024-02-16T10:32:36;101681.75;;;18.96;40.39
78123;BME280;67376;44.802;10.332;2024-02-16T10:35:03;101668.63;;;18.93;40.19
78123;BME280;67376;44.802;10.332;2024-02-16T10:37:32;101668.41;;;18.94;40.17
78123;BME280;67376;44.802;10.332;2024-02-16T10:39:58;101665.72;;;18.94;40.58
78123;BME280;67376;44.802;10.332;2024-02-16T10:42:27;101673.00;;;18.94;41.19
78123;BME280;67376;44.802;10.332;2024-02-16T10:44:53;101666.34;;;18.96;42.58
78123;BME280;67376;44.802;10.332;2024-02-16T10:47:18;101677.81;;;18.98;46.90
78123;BME280;67376;44.802;10.332;2024-02-16T10:49:44;101676.97;;;18.98;46.30
78123;BME280;67376;44.802;10.332;2024-02-16T10:52:11;101667.59;;;18.94;47.81
78123;BME280;67376;44.802;10.332;2024-02-16T10:54:38;101675.28;;;18.90;47.15
78123;BME280;67376;44.802;10.332;2024-02-16T10:57:08;101668.59;;;18.86;48.04
78123;BME280;67376;44.802;10.332;2024-02-16T10:59:53;101669.19;;;18.75;45.36
78123;BME280;67376;44.802;10.332;2024-02-16T11:02:19;101660.84;;;18.70;44.92
78123;BME280;67376;44.802;10.332;2024-02-16T11:04:46;101662.91;;;18.68;44.34
78123;BME280;67376;44.802;10.332;2024-02-16T11:07:15;101667.09;;;18.70;44.65
78123;BME280;67376;44.802;10.332;2024-02-16T11:09:41;101661.47;;;18.72;43.26
78123;BME280;67376;44.802;10.332;2024-02-16T11:12:07;101658.56;;;18.73;43.71
78123;BME280;67376;44.802;10.332;2024-02-16T11:14:41;101660.88;;;18.76;43.95
78123;BME280;67376;44.802;10.332;2024-02-16T11:17:12;101653.19;;;18.80;43.56
78123;BME280;67376;44.802;10.332;2024-02-16T11:19:45;101650.06;;;18.83;43.38
78123;BME280;67376;44.802;10.332;2024-02-16T11:22:15;101651.53;;;18.86;43.26
78123;BME280;67376;44.802;10.332;2024-02-16T11:24:45;101643.00;;;18.89;43.33
78123;BME280;67376;44.802;10.332;2024-02-16T11:27:11;101646.34;;;18.91;43.24
78123;BME280;67376;44.802;10.332;2024-02-16T11:29:38;101639.06;;;18.91;42.56
78123;BME280;67376;44.802;10.332;2024-02-16T11:32:05;101634.28;;;18.93;42.54
78123;BME280;67376;44.802;10.332;2024-02-16T11:34:32;101631.56;;;18.93;42.96
78123;BME280;67376;44.802;10.332;2024-02-16T11:36:59;101626.78;;;18.95;43.26
78123;BME280;67376;44.802;10.332;2024-02-16T11:39:25;101621.59;;;18.94;42.60
78123;BME280;67376;44.802;10.332;2024-02-16T11:42:00;101622.00;;;18.97;42.95
78123;BME280;67376;44.802;10.332;2024-02-16T11:44:33;101623.06;;;18.96;42.04
78123;BME280;67376;44.802;10.332;2024-02-16T11:47:00;101620.97;;;18.98;42.16
78123;BME280;67376;44.802;10.332;2024-02-16T11:49:27;101616.41;;;18.99;41.81
78123;BME280;67376;44.802;10.332;2024-02-16T11:51:53;101611.19;;;18.97;42.94
78123;BME280;67376;44.802;10.332;2024-02-16T11:54:18;101602.88;;;18.99;42.49
78123;BME280;67376;44.802;10.332;2024-02-16T11:56:48;101623.28;;;19.01;41.69
78123;BME280;67376;44.802;10.332;2024-02-16T11:59:17;101604.31;;;19.01;42.12
78123;BME280;67376;44.802;10.332;2024-02-16T12:01:56;101604.53;;;19.00;42.68
78123;BME280;67376;44.802;10.332;2024-02-16T12:06:47;101606.19;;;19.01;41.77
78123;BME280;67376;44.802;10.332;2024-02-16T12:09:16;101605.38;;;19.00;42.57
78123;BME280;67376;44.802;10.332;2024-02-16T12:11:42;101601.81;;;19.00;42.40
78123;BME280;67376;44.802;10.332;2024-02-16T12:14:07;101605.38;;;19.00;42.59
78123;BME280;67376;44.802;10.332;2024-02-16T12:16:32;101596.22;;;19.01;41.67
78123;BME280;67376;44.802;10.332;2024-02-16T12:19:05;101593.28;;;19.03;41.72
78123;BME280;67376;44.802;10.332;2024-02-16T12:21:31;101596.84;;;19.03;41.86
78123;BME280;67376;44.802;10.332;2024-02-16T12:23:56;101592.47;;;19.02;41.87
78123;BME280;67376;44.802;10.332;2024-02-16T12:26:22;101588.72;;;19.03;42.34
78123;BME280;67376;44.802;10.332;2024-02-16T12:28:48;101602.03;;;19.05;41.60
78123;BME280;67376;44.802;10.332;2024-02-16T12:31:20;101586.00;;;19.03;42.43
78123;BME280;67376;44.802;10.332;2024-02-16T12:33:46;101576.84;;;19.04;41.47
78123;BME280;67376;44.802;10.332;2024-02-16T12:36:11;101577.88;;;19.03;41.59
78123;BME280;67376;44.802;10.332;2024-02-16T12:38:36;101575.81;;;19.05;41.49